Time;durP1;ratioP1;P1;durP2;ratioP2;P2;SDS_P1;SDS_P2;PMS_P1;PMS_P2;Temp;Humidity;BMP_temperature;BMP_pressure;BME280_temperature;BME280_humidity;BME280_pressure;Samples;Min_cycle;Max_cycle;Signal;HPM_P1;HPM_P2
2021/05/23 00:02:24;;;;;;;;;;;8.20;95.90;;;;;;5091749;28;19913;-72
2021/05/23 00:04:50;;;;;;;;;;;8.20;95.90;;;;;;5095399;28;19962;-72
2021/05/23 00:07:17;;;;;;;;;;;8.20;95.90;;;;;;5077133;28;19919;-72
2021/05/23 00:09:42;;;;;;;;;;;8.20;95.30;;;;;;5092000;28;19973;-72
2021/05/23 00:12:13;;;;;;;;;;;8.10;95.30;;;;;;5094304;28;20344;-71
2021/05/23 00:14:39;;;;;;;;;;;8.10;95.70;;;;;;5094490;28;20266;-72
2021/05/23 00:17:04;;;;;;;;;;;8.10;95.90;;;;;;5074276;28;20016;-72
2021/05/23 00:19:30;;;;;;;;;;;8.10;96.30;;;;;;5095025;28;19962;-71
2021/05/23 00:21:55;;;;;;;;;;;8.10;96.40;;;;;;5092705;28;19912;-72
2021/05/23 00:24:21;;;;;;;;;;;8.20;95.80;;;;;;5095326;28;19912;-71
2021/05/23 00:26:47;;;;;;;;;;;8.20;96.50;;;;;;5091985;28;19916;-72
2021/05/23 00:29:15;;;;;;;;;;;8.30;95.70;;;;;;5090856;28;20006;-70
2021/05/23 00:31:41;;;;;;;;;;;8.30;95.60;;;;;;5091218;28;19998;-71
2021/05/23 00:34:06;;;;;;;;;;;8.40;95.10;;;;;;5075400;28;20008;-72
2021/05/23 00:36:32;;;;;;;;;;;8.40;95.70;;;;;;5091803;28;19916;-71
2021/05/23 00:38:58;;;;;;;;;;;8.40;95.40;;;;;;5093783;28;19916;-72
2021/05/23 00:41:24;;;;;;;;;;;8.30;95.40;;;;;;5091487;28;20388;-72
2021/05/23 00:43:50;;;;;;;;;;;8.30;95.50;;;;;;5089703;28;20035;-72
2021/05/23 00:46:15;;;;;;;;;;;8.30;95.60;;;;;;5094210;28;19959;-72
2021/05/23 00:48:41;;;;;;;;;;;8.30;95.50;;;;;;5094855;28;20266;-72
2021/05/23 00:51:06;;;;;;;;;;;8.30;95.40;;;;;;5091387;28;19923;-71
2021/05/23 00:53:32;;;;;;;;;;;8.40;95.30;;;;;;5092808;28;19919;-71
2021/05/23 00:55:57;;;;;;;;;;;8.50;95.30;;;;;;5093936;28;19920;-71
2021/05/23 00:58:23;;;;;;;;;;;8.50;95.80;;;;;;5094565;28;19908;-70
2021/05/23 01:00:54;;;;;;;;;;;8.50;95.60;;;;;;5090720;28;19912;-73
2021/05/23 01:03:29;;;;;;;;;;;8.50;95.40;;;;;;5094676;28;19908;-70
2021/05/23 01:05:56;;;;;;;;;;;8.40;95.30;;;;;;5074525;28;19916;-71
2021/05/23 01:08:22;;;;;;;;;;;8.50;95.60;;;;;;5092660;28;20266;-70
2021/05/23 01:11:06;;;;;;;;;;;8.50;95.20;;;;;;5076270;28;19961;-71
2021/05/23 01:13:35;;;;;;;;;;;8.50;95.50;;;;;;5091187;28;20018;-71
2021/05/23 01:16:09;;;;;;;;;;;8.50;95.30;;;;;;5094449;28;20358;-71
2021/05/23 01:18:45;;;;;;;;;;;8.50;95.30;;;;;;5092109;28;19912;-72
2021/05/23 01:21:11;;;;;;;;;;;8.50;96.10;;;;;;5087978;28;20489;-71
2021/05/23 01:23:41;;;;;;;;;;;8.70;94.90;;;;;;5085317;28;19916;-72
2021/05/23 01:26:09;;;;;;;;;;;8.70;95.20;;;;;;5091919;28;19945;-72
2021/05/23 01:28:40;;;;;;;;;;;8.70;95.50;;;;;;5091114;28;19916;-72
2021/05/23 01:31:07;;;;;;;;;;;8.60;95.20;;;;;;5093736;28;19912;-72
2021/05/23 01:33:33;;;;;;;;;;;8.50;95.40;;;;;;5093313;28;19955;-71
2021/05/23 01:35:59;;;;;;;;;;;8.40;95.10;;;;;;5071336;28;20864;-71
2021/05/23 01:38:25;;;;;;;;;;;8.30;95.50;;;;;;5092186;28;20038;-72
2021/05/23 01:40:52;;;;;;;;;;;8.20;95.70;;;;;;5092273;28;19993;-72
2021/05/23 01:43:19;;;;;;;;;;;8.10;96.00;;;;;;5097918;28;19923;-74
2021/05/23 01:45:44;;;;;;;;;;;8.10;95.80;;;;;;5096235;28;19972;-72
2021/05/23 01:48:10;;;;;;;;;;;8.00;96.10;;;;;;5095361;28;20002;-73
2021/05/23 01:50:37;;;;;;;;;;;7.90;96.70;;;;;;5094137;28;20297;-72
2021/05/23 01:53:03;;;;;;;;;;;7.80;96.10;;;;;;5096524;28;19957;-72
2021/05/23 01:55:30;;;;;;;;;;;7.70;96.40;;;;;;5078683;28;19928;-74
2021/05/23 01:57:56;;;;;;;;;;;7.60;96.30;;;;;;5097407;28;20232;-72
2021/05/23 02:00:24;;;;;;;;;;;7.50;96.10;;;;;;5096604;28;19912;-72
2021/05/23 02:02:49;;;;;;;;;;;7.50;96.20;;;;;;5094565;28;19951;-72
2021/05/23 02:05:15;;;;;;;;;;;7.40;96.40;;;;;;5093669;28;19989;-72
2021/05/23 02:07:40;;;;;;;;;;;7.40;96.70;;;;;;5094082;28;20011;-73
2021/05/23 02:10:07;;;;;;;;;;;7.40;96.30;;;;;;5097768;28;19959;-72
2021/05/23 02:12:33;;;;;;;;;;;7.40;96.50;;;;;;5096737;28;19919;-72
2021/05/23 02:15:00;;;;;;;;;;;7.30;96.40;;;;;;5097396;28;19916;-73
2021/05/23 02:17:25;;;;;;;;;;;7.30;96.60;;;;;;5080862;28;19919;-72
2021/05/23 02:19:51;;;;;;;;;;;7.30;96.40;;;;;;5097075;28;19920;-72
2021/05/23 02:22:17;;;;;;;;;;;7.40;96.60;;;;;;5095895;28;19923;-71
2021/05/23 02:24:43;;;;;;;;;;;7.40;96.30;;;;;;5097398;28;19920;-72
2021/05/23 02:27:08;;;;;;;;;;;7.40;96.50;;;;;;5097120;28;19912;-72
2021/05/23 02:29:34;;;;;;;;;;;7.40;96.70;;;;;;5096275;28;20259;-72
2021/05/23 02:32:00;;;;;;;;;;;7.40;96.70;;;;;;5078997;28;20002;-72
2021/05/23 02:34:27;;;;;;;;;;;7.40;96.50;;;;;;5097108;28;19912;-72
2021/05/23 02:36:52;;;;;;;;;;;7.50;96.60;;;;;;5095282;28;19987;-72
2021/05/23 02:39:21;;;;;;;;;;;7.60;96.60;;;;;;5094165;28;19938;-72
2021/05/23 02:41:47;;;;;;;;;;;7.70;96.60;;;;;;5096856;28;19920;-72
2021/05/23 02:44:12;;;;;;;;;;;7.70;96.50;;;;;;5097220;28;19916;-73
2021/05/23 02:46:38;;;;;;;;;;;7.60;96.60;;;;;;5096379;28;19912;-74
2021/05/23 02:49:03;;;;;;;;;;;7.60;96.60;;;;;;5078910;28;19912;-72
2021/05/23 02:51:29;;;;;;;;;;;7.50;96.50;;;;;;5095283;28;19947;-73
2021/05/23 02:53:55;;;;;;;;;;;7.50;96.40;;;;;;5093724;28;19916;-72
2021/05/23 02:56:23;;;;;;;;;;;7.50;96.70;;;;;;5096775;28;19920;-72
2021/05/23 02:58:48;;;;;;;;;;;7.40;96.60;;;;;;5096008;28;20224;-73
2021/05/23 03:01:14;;;;;;;;;;;7.40;96.70;;;;;;5096870;28;19919;-72
2021/05/23 03:03:39;;;;;;;;;;;7.40;97.00;;;;;;5096136;28;19912;-73
2021/05/23 03:06:05;;;;;;;;;;;7.40;96.80;;;;;;5092852;28;20336;-73
2021/05/23 03:08:30;;;;;;;;;;;7.40;97.10;;;;;;5096430;28;19912;-72
2021/05/23 03:10:56;;;;;;;;;;;7.30;97.20;;;;;;5095441;28;19916;-73
2021/05/23 03:13:22;;;;;;;;;;;7.30;97.20;;;;;;5096690;28;19971;-73
2021/05/23 03:15:47;;;;;;;;;;;7.30;97.00;;;;;;5095925;28;19912;-72
2021/05/23 03:18:13;;;;;;;;;;;7.30;96.90;;;;;;5096320;28;19915;-71
2021/05/23 03:20:39;;;;;;;;;;;7.30;96.80;;;;;;5094984;28;20403;-72
2021/05/23 03:23:05;;;;;;;;;;;7.30;96.80;;;;;;5095876;28;19923;-72
2021/05/23 03:25:32;;;;;;;;;;;7.40;96.70;;;;;;5078677;28;19922;-72
2021/05/23 03:27:58;;;;;;;;;;;7.40;96.70;;;;;;5095687;28;20327;-72
2021/05/23 03:30:25;;;;;;;;;;;7.40;96.90;;;;;;5093578;28;19912;-72
2021/05/23 03:32:51;;;;;;;;;;;7.40;96.70;;;;;;5095623;28;19977;-72
2021/05/23 03:35:16;;;;;;;;;;;7.40;96.60;;;;;;5092139;28;19955;-71
2021/05/23 03:37:42;;;;;;;;;;;7.50;96.60;;;;;;5091880;28;19923;-72
2021/05/23 03:40:09;;;;;;;;;;;7.40;97.00;;;;;;5094061;28;20004;-72
2021/05/23 03:42:35;;;;;;;;;;;7.40;96.80;;;;;;5094005;28;19955;-72
2021/05/23 03:45:01;;;;;;;;;;;7.30;96.80;;;;;;5093568;28;20009;-72
2021/05/23 03:47:27;;;;;;;;;;;7.30;97.10;;;;;;5095188;28;19926;-72
2021/05/23 03:49:52;;;;;;;;;;;7.30;97.50;;;;;;5095890;28;19912;-71
2021/05/23 03:52:20;;;;;;;;;;;7.30;97.50;;;;;;5093351;28;19919;-71
2021/05/23 03:54:46;;;;;;;;;;;7.40;97.10;;;;;;5094193;28;19913;-72
2021/05/23 03:57:11;;;;;;;;;;;7.30;97.20;;;;;;5077618;28;19912;-72
2021/05/23 03:59:37;;;;;;;;;;;7.30;97.00;;;;;;5076871;28;20246;-72
2021/05/23 04:02:02;;;;;;;;;;;7.30;96.80;;;;;;5094996;28;19926;-71
2021/05/23 04:04:45;;;;;;;;;;;7.30;96.90;;;;;;5092788;28;19962;-71
2021/05/23 04:07:11;;;;;;;;;;;7.30;97.00;;;;;;5093416;28;20193;-72
2021/05/23 04:09:36;;;;;;;;;;;7.30;97.00;;;;;;5095220;28;19966;-72
2021/05/23 04:12:02;;;;;;;;;;;7.30;97.00;;;;;;5076194;28;20280;-72
2021/05/23 04:14:28;;;;;;;;;;;7.30;97.10;;;;;;5093571;28;20273;-72
2021/05/23 04:16:54;;;;;;;;;;;7.30;96.80;;;;;;5091680;28;19999;-71
2021/05/23 04:19:20;;;;;;;;;;;7.30;97.00;;;;;;5095165;28;19999;-72
2021/05/23 04:21:45;;;;;;;;;;;7.30;97.20;;;;;;5075837;28;19912;-72
2021/05/23 04:24:11;;;;;;;;;;;7.30;97.00;;;;;;5089131;28;20372;-72
2021/05/23 04:26:36;;;;;;;;;;;7.40;97.10;;;;;;5090406;28;20002;-72
2021/05/23 04:29:02;;;;;;;;;;;7.30;96.90;;;;;;5089458;28;19958;-72
2021/05/23 04:31:27;;;;;;;;;;;7.30;96.90;;;;;;5095118;28;19923;-71
2021/05/23 04:33:53;;;;;;;;;;;7.30;96.90;;;;;;5069225;28;19965;-71
2021/05/23 04:36:18;;;;;;;;;;;7.20;96.90;;;;;;5079951;28;19916;-73
2021/05/23 04:38:44;;;;;;;;;;;7.20;97.00;;;;;;5084479;28;19916;-73
2021/05/23 04:41:13;;;;;;;;;;;7.20;97.10;;;;;;5078251;28;19916;-72
2021/05/23 04:43:39;;;;;;;;;;;7.20;96.90;;;;;;5088227;28;19920;-73
2021/05/23 04:46:05;;;;;;;;;;;7.20;97.10;;;;;;5076235;28;19909;-74
2021/05/23 04:48:30;;;;;;;;;;;7.10;97.10;;;;;;5081442;28;19918;-72
2021/05/23 04:50:56;;;;;;;;;;;7.20;97.00;;;;;;5095188;28;20019;-72
2021/05/23 04:53:21;;;;;;;;;;;7.20;96.90;;;;;;5093584;28;19938;-73
2021/05/23 04:55:47;;;;;;;;;;;7.20;97.10;;;;;;5095498;28;19920;-73
2021/05/23 04:58:12;;;;;;;;;;;7.20;96.80;;;;;;5090116;28;19916;-74
2021/05/23 05:00:38;;;;;;;;;;;7.20;97.00;;;;;;5096890;28;19916;-72
2021/05/23 05:03:03;;;;;;;;;;;7.20;97.00;;;;;;5088453;28;19919;-73
2021/05/23 05:05:29;;;;;;;;;;;7.20;96.70;;;;;;5075983;28;20242;-72
2021/05/23 05:07:54;;;;;;;;;;;7.30;96.90;;;;;;5081008;28;19912;-72
2021/05/23 05:10:20;;;;;;;;;;;7.30;97.10;;;;;;5095834;28;19912;-73
2021/05/23 05:12:45;;;;;;;;;;;7.40;97.00;;;;;;5093704;28;19923;-72
2021/05/23 05:15:11;;;;;;;;;;;7.50;97.20;;;;;;5093188;28;20330;-72
2021/05/23 05:17:37;;;;;;;;;;;7.40;97.40;;;;;;5089454;28;20308;-72
2021/05/23 05:20:04;;;;;;;;;;;7.50;97.50;;;;;;5075909;28;19966;-72
2021/05/23 05:22:29;;;;;;;;;;;7.50;97.10;;;;;;5088171;28;19977;-72
2021/05/23 05:24:56;;;;;;;;;;;7.50;97.10;;;;;;5092835;28;20267;-72
2021/05/23 05:27:23;;;;;;;;;;;7.50;97.60;;;;;;5081900;28;19921;-72
2021/05/23 05:29:49;;;;;;;;;;;7.50;97.20;;;;;;5088791;28;19923;-72
2021/05/23 05:32:14;;;;;;;;;;;7.50;97.30;;;;;;5063182;28;19912;-72
2021/05/23 05:34:40;;;;;;;;;;;7.40;97.10;;;;;;5068329;28;19916;-72
2021/05/23 05:37:06;;;;;;;;;;;7.40;97.30;;;;;;5081320;28;19923;-72
2021/05/23 05:39:31;;;;;;;;;;;7.40;97.20;;;;;;5091185;28;19912;-72
2021/05/23 05:41:58;;;;;;;;;;;7.50;97.20;;;;;;5095652;28;19916;-73
2021/05/23 05:44:24;;;;;;;;;;;7.60;97.80;;;;;;5089796;28;19912;-72
2021/05/23 05:46:50;;;;;;;;;;;7.80;97.20;;;;;;5077385;28;19920;-72
2021/05/23 05:49:15;;;;;;;;;;;8.10;96.90;;;;;;5077959;28;20288;-72
2021/05/23 05:51:41;;;;;;;;;;;8.30;97.70;;;;;;5080692;28;19955;-72
2021/05/23 05:54:06;;;;;;;;;;;8.40;97.10;;;;;;5091860;28;19931;-74
2021/05/23 05:56:32;;;;;;;;;;;8.20;96.90;;;;;;5077780;28;19923;-73
2021/05/23 05:58:57;;;;;;;;;;;8.00;97.00;;;;;;5094022;28;19912;-72
2021/05/23 06:01:23;;;;;;;;;;;7.80;96.70;;;;;;5068962;28;19965;-72
2021/05/23 06:03:48;;;;;;;;;;;7.70;96.80;;;;;;5091967;28;19912;-72
2021/05/23 06:06:14;;;;;;;;;;;7.60;96.50;;;;;;5087388;28;19913;-73
2021/05/23 06:08:39;;;;;;;;;;;7.50;97.10;;;;;;5068665;28;19916;-73
2021/05/23 06:11:05;;;;;;;;;;;7.40;97.00;;;;;;5086241;28;19913;-73
2021/05/23 06:13:30;;;;;;;;;;;7.30;96.70;;;;;;5065109;28;19917;-73
2021/05/23 06:15:56;;;;;;;;;;;7.20;97.10;;;;;;5083625;28;20027;-73
2021/05/23 06:18:25;;;;;;;;;;;7.10;96.90;;;;;;5087020;28;19971;-73
2021/05/23 06:20:51;;;;;;;;;;;7.00;98.00;;;;;;5094075;28;20228;-73
2021/05/23 06:23:17;;;;;;;;;;;6.90;96.90;;;;;;5093475;28;19912;-73
2021/05/23 06:25:42;;;;;;;;;;;6.90;97.70;;;;;;5091242;28;19927;-73
2021/05/23 06:28:08;;;;;;;;;;;6.90;96.90;;;;;;5095731;28;19919;-72
2021/05/23 06:30:33;;;;;;;;;;;7.00;96.80;;;;;;5087448;28;19920;-72
2021/05/23 06:32:59;;;;;;;;;;;7.00;96.70;;;;;;5090361;28;19918;-72
2021/05/23 06:35:24;;;;;;;;;;;7.10;97.00;;;;;;5079973;28;19922;-72
2021/05/23 06:37:50;;;;;;;;;;;7.20;96.10;;;;;;5089250;28;19917;-73
2021/05/23 06:40:15;;;;;;;;;;;7.30;97.20;;;;;;5078665;28;19915;-72
2021/05/23 06:42:41;;;;;;;;;;;7.40;96.20;;;;;;5085663;28;19912;-72
2021/05/23 06:45:07;;;;;;;;;;;7.60;96.40;;;;;;5090782;28;19912;-73
2021/05/23 06:47:32;;;;;;;;;;;7.70;96.50;;;;;;5096084;28;19912;-71
2021/05/23 06:49:58;;;;;;;;;;;7.70;97.60;;;;;;5088256;28;19920;-72
2021/05/23 06:52:26;;;;;;;;;;;7.70;95.90;;;;;;5078520;28;19927;-72
2021/05/23 06:54:51;;;;;;;;;;;7.80;96.20;;;;;;5089008;28;19920;-74
2021/05/23 06:57:17;;;;;;;;;;;8.20;96.00;;;;;;5080301;28;19922;-72
2021/05/23 06:59:42;;;;;;;;;;;8.50;95.60;;;;;;5092956;28;20007;-72
2021/05/23 07:02:08;;;;;;;;;;;8.50;95.60;;;;;;5089450;28;19999;-72
2021/05/23 07:04:33;;;;;;;;;;;8.80;95.20;;;;;;5097465;28;19918;-72
2021/05/23 07:06:59;;;;;;;;;;;9.00;94.50;;;;;;5068453;28;19920;-72
2021/05/23 07:09:24;;;;;;;;;;;8.70;95.10;;;;;;5087885;28;19958;-73
2021/05/23 07:11:50;;;;;;;;;;;9.00;94.80;;;;;;5063340;28;20345;-73
2021/05/23 07:14:15;;;;;;;;;;;9.30;94.80;;;;;;5079070;28;19916;-73
2021/05/23 07:16:41;;;;;;;;;;;9.30;93.20;;;;;;5079718;28;19916;-72
2021/05/23 07:19:06;;;;;;;;;;;8.80;94.50;;;;;;5084048;28;19952;-73
2021/05/23 07:21:32;;;;;;;;;;;8.80;95.00;;;;;;5081996;28;19912;-73
2021/05/23 07:23:57;;;;;;;;;;;9.00;95.10;;;;;;5080362;28;20007;-73
2021/05/23 07:26:23;;;;;;;;;;;9.30;94.40;;;;;;5079195;28;19959;-73
2021/05/23 07:28:48;;;;;;;;;;;10.10;94.00;;;;;;5093310;28;20007;-74
2021/05/23 07:31:14;;;;;;;;;;;10.80;93.60;;;;;;5085427;28;19962;-74
2021/05/23 07:33:41;;;;;;;;;;;12.00;88.20;;;;;;5079894;28;19912;-72
2021/05/23 07:36:07;;;;;;;;;;;11.70;87.10;;;;;;5085279;28;19935;-72
2021/05/23 07:38:33;;;;;;;;;;;11.20;89.30;;;;;;5083890;28;20185;-73
2021/05/23 07:40:59;;;;;;;;;;;11.00;89.80;;;;;;5088199;28;19913;-73
2021/05/23 07:43:24;;;;;;;;;;;10.80;90.50;;;;;;5078779;28;19916;-73
2021/05/23 07:45:50;;;;;;;;;;;10.30;90.30;;;;;;5096301;28;19912;-73
2021/05/23 07:48:16;;;;;;;;;;;10.00;91.80;;;;;;5086149;28;19916;-73
2021/05/23 07:50:41;;;;;;;;;;;9.80;93.30;;;;;;5085524;28;20004;-73
2021/05/23 07:53:07;;;;;;;;;;;9.80;93.50;;;;;;5088537;28;19912;-72
2021/05/23 07:55:32;;;;;;;;;;;11.00;93.00;;;;;;5095193;28;19920;-73
2021/05/23 07:57:58;;;;;;;;;;;12.50;87.70;;;;;;5085853;28;19916;-73
2021/05/23 08:00:26;;;;;;;;;;;13.30;84.60;;;;;;5060197;28;19924;-72
2021/05/23 08:02:52;;;;;;;;;;;13.70;85.00;;;;;;5085507;28;20387;-72
2021/05/23 08:05:17;;;;;;;;;;;14.40;82.00;;;;;;5073714;28;20023;-72
2021/05/23 08:07:43;;;;;;;;;;;14.40;81.60;;;;;;5079972;28;19960;-73
2021/05/23 08:10:10;;;;;;;;;;;13.70;80.80;;;;;;5093822;28;19912;-72
2021/05/23 08:12:36;;;;;;;;;;;12.80;82.30;;;;;;5079000;28;20663;-73
2021/05/23 08:15:01;;;;;;;;;;;12.90;83.70;;;;;;5080814;28;20038;-72
2021/05/23 08:17:27;;;;;;;;;;;12.90;82.30;;;;;;5077224;28;19912;-72
2021/05/23 08:19:52;;;;;;;;;;;12.50;83.80;;;;;;5080010;28;19920;-71
2021/05/23 08:22:18;;;;;;;;;;;11.70;84.10;;;;;;5058725;28;20020;-72
2021/05/23 08:24:45;;;;;;;;;;;10.90;87.40;;;;;;5076252;28;20313;-72
2021/05/23 08:27:10;;;;;;;;;;;10.10;90.20;;;;;;5081455;28;19926;-73
2021/05/23 08:29:36;;;;;;;;;;;9.50;91.20;;;;;;5088170;28;19916;-73
2021/05/23 08:32:01;;;;;;;;;;;9.20;92.80;;;;;;5091294;28;19912;-73
2021/05/23 08:34:27;;;;;;;;;;;9.80;93.70;;;;;;5084258;28;19997;-74
2021/05/23 08:36:53;;;;;;;;;;;11.40;90.50;;;;;;5088283;28;20005;-72
2021/05/23 08:39:19;;;;;;;;;;;12.70;86.20;;;;;;5091041;28;19912;-71
2021/05/23 08:41:46;;;;;;;;;;;13.50;82.10;;;;;;5095404;28;19954;-71
2021/05/23 08:44:17;;;;;;;;;;;14.10;79.70;;;;;;5090352;28;19917;-71
2021/05/23 08:46:44;;;;;;;;;;;13.20;78.80;;;;;;5082622;28;19957;-71
2021/05/23 08:49:09;;;;;;;;;;;13.10;79.20;;;;;;5083868;28;20007;-71
2021/05/23 08:51:35;;;;;;;;;;;14.20;78.10;;;;;;5082154;28;20025;-72
2021/05/23 08:54:02;;;;;;;;;;;14.90;73.00;;;;;;5092535;28;19911;-73
2021/05/23 08:56:28;;;;;;;;;;;14.30;75.40;;;;;;5084961;28;19939;-72
2021/05/23 08:58:53;;;;;;;;;;;13.60;76.00;;;;;;5088508;28;20308;-71
2021/05/23 09:01:23;;;;;;;;;;;13.30;77.70;;;;;;5086015;28;20388;-72
2021/05/23 09:03:58;;;;;;;;;;;12.60;79.20;;;;;;5063651;28;19912;-71
2021/05/23 09:06:28;;;;;;;;;;;12.40;81.50;;;;;;5089560;28;19916;-73
2021/05/23 09:08:59;;;;;;;;;;;12.80;80.50;;;;;;5092672;28;19955;-71
2021/05/23 09:11:25;;;;;;;;;;;13.40;76.90;;;;;;5094725;28;20011;-72
2021/05/23 09:13:52;;;;;;;;;;;13.40;77.90;;;;;;5092100;28;20228;-72
2021/05/23 09:16:20;;;;;;;;;;;13.20;76.60;;;;;;5086445;28;19928;-72
2021/05/23 09:18:47;;;;;;;;;;;13.10;76.70;;;;;;5068152;28;20265;-72
2021/05/23 09:21:14;;;;;;;;;;;13.20;75.90;;;;;;5085968;28;19973;-72
2021/05/23 09:23:46;;;;;;;;;;;13.20;76.00;;;;;;5080226;28;19912;-71
2021/05/23 09:26:23;;;;;;;;;;;13.70;74.90;;;;;;5088787;28;20348;-70
2021/05/23 09:28:49;;;;;;;;;;;14.50;73.80;;;;;;5082522;28;19963;-71
2021/05/23 09:31:24;;;;;;;;;;;14.10;74.60;;;;;;5087416;28;20014;-72
2021/05/23 09:33:52;;;;;;;;;;;13.50;77.30;;;;;;5076737;28;19948;-72
2021/05/23 09:36:23;;;;;;;;;;;12.70;80.30;;;;;;5097437;28;19916;-71
2021/05/23 09:38:55;;;;;;;;;;;12.30;83.10;;;;;;5084842;28;19921;-72
2021/05/23 09:41:28;;;;;;;;;;;11.80;85.30;;;;;;5077599;28;19912;-72
2021/05/23 09:44:10;;;;;;;;;;;11.10;88.20;;;;;;5095755;28;20340;-72
2021/05/23 09:46:36;;;;;;;;;;;11.00;89.80;;;;;;5081562;28;19923;-72
2021/05/23 09:49:02;;;;;;;;;;;11.10;89.90;;;;;;5090853;28;19912;-72
2021/05/23 09:51:30;;;;;;;;;;;11.70;89.40;;;;;;5093636;28;20216;-72
2021/05/23 09:53:57;;;;;;;;;;;12.70;86.40;;;;;;5084426;28;19919;-71
2021/05/23 09:56:27;;;;;;;;;;;14.10;80.70;;;;;;5084635;28;19924;-72
2021/05/23 09:58:53;;;;;;;;;;;15.00;77.10;;;;;;5081651;28;20247;-71
2021/05/23 10:01:30;;;;;;;;;;;14.60;77.00;;;;;;5078896;28;19921;-72
2021/05/23 10:03:57;;;;;;;;;;;14.00;78.30;;;;;;5099705;28;19999;-71
2021/05/23 10:06:26;;;;;;;;;;;13.50;78.70;;;;;;5092844;28;20224;-70
2021/05/23 10:08:52;;;;;;;;;;;13.30;76.40;;;;;;5066845;28;19912;-71
2021/05/23 10:11:18;;;;;;;;;;;12.90;75.50;;;;;;5085499;28;19919;-70
2021/05/23 10:13:43;;;;;;;;;;;12.90;74.60;;;;;;5090251;28;20010;-70
2021/05/23 10:16:09;;;;;;;;;;;12.90;75.20;;;;;;5093349;28;19959;-70
2021/05/23 10:18:36;;;;;;;;;;;13.30;74.00;;;;;;5089755;28;19931;-70
2021/05/23 10:21:02;;;;;;;;;;;13.80;74.10;;;;;;5091251;28;20220;-72
2021/05/23 10:23:38;;;;;;;;;;;15.10;72.80;;;;;;5089510;28;19916;-72
2021/05/23 10:26:05;;;;;;;;;;;16.30;69.60;;;;;;5090808;28;19912;-72
2021/05/23 10:28:35;;;;;;;;;;;16.10;68.90;;;;;;5073941;28;20219;-72
2021/05/23 10:31:01;;;;;;;;;;;16.30;69.10;;;;;;5086173;28;19916;-72
2021/05/23 10:33:26;;;;;;;;;;;16.70;66.10;;;;;;5088624;28;19920;-72
2021/05/23 10:35:53;;;;;;;;;;;17.10;65.20;;;;;;5096630;28;19955;-72
2021/05/23 10:38:22;;;;;;;;;;;17.00;65.40;;;;;;5094274;28;19912;-71
2021/05/23 10:40:58;;;;;;;;;;;16.70;66.30;;;;;;5083730;28;19995;-72
2021/05/23 10:43:28;;;;;;;;;;;17.00;66.30;;;;;;5090157;28;19912;-71
2021/05/23 10:46:06;;;;;;;;;;;16.10;68.20;;;;;;5078376;28;19912;-70
2021/05/23 10:48:31;;;;;;;;;;;15.40;69.00;;;;;;5078417;28;20288;-71
2021/05/23 10:50:57;;;;;;;;;;;15.20;69.40;;;;;;5093829;28;19912;-70
2021/05/23 10:53:32;;;;;;;;;;;15.10;69.80;;;;;;5088637;28;19917;-71
2021/05/23 10:55:57;;;;;;;;;;;15.60;69.70;;;;;;5087723;28;19920;-72
2021/05/23 10:58:24;;;;;;;;;;;16.20;66.20;;;;;;5094498;28;19919;-70
2021/05/23 11:00:54;;;;;;;;;;;16.50;64.70;;;;;;5090183;28;19965;-71
2021/05/23 11:03:20;;;;;;;;;;;16.10;65.50;;;;;;5096522;28;19913;-71
2021/05/23 11:05:46;;;;;;;;;;;15.40;66.40;;;;;;5095595;28;19919;-71
2021/05/23 11:08:13;;;;;;;;;;;15.20;68.70;;;;;;5088030;28;19919;-72
2021/05/23 11:10:40;;;;;;;;;;;14.60;69.40;;;;;;5083266;28;20266;-71
2021/05/23 11:13:06;;;;;;;;;;;14.30;71.10;;;;;;5090278;28;19920;-71
2021/05/23 11:15:40;;;;;;;;;;;14.10;72.20;;;;;;5082651;28;20015;-71
2021/05/23 11:18:05;;;;;;;;;;;14.00;72.00;;;;;;5083947;28;19951;-71
2021/05/23 11:20:31;;;;;;;;;;;14.00;71.30;;;;;;5094946;28;19962;-71
2021/05/23 11:22:56;;;;;;;;;;;14.20;72.00;;;;;;5076494;28;20319;-71
2021/05/23 11:25:22;;;;;;;;;;;14.20;71.20;;;;;;5092195;28;19920;-70
2021/05/23 11:27:55;;;;;;;;;;;14.30;71.50;;;;;;5094959;28;20246;-71
2021/05/23 11:30:20;;;;;;;;;;;14.70;71.50;;;;;;5091459;28;19956;-71
2021/05/23 11:32:46;;;;;;;;;;;15.70;69.90;;;;;;5073501;28;19970;-71
2021/05/23 11:35:21;;;;;;;;;;;16.60;68.40;;;;;;5096553;28;19923;-70
2021/05/23 11:37:51;;;;;;;;;;;16.80;65.60;;;;;;5081812;28;19919;-70
2021/05/23 11:40:16;;;;;;;;;;;16.40;64.50;;;;;;5088410;28;19912;-72
2021/05/23 11:42:42;;;;;;;;;;;16.70;66.80;;;;;;5093859;28;20220;-72
2021/05/23 11:45:17;;;;;;;;;;;17.70;64.70;;;;;;5088514;28;19912;-70
2021/05/23 11:47:44;;;;;;;;;;;17.20;64.30;;;;;;5091436;28;20008;-70
2021/05/23 11:50:20;;;;;;;;;;;16.50;65.20;;;;;;5094259;28;19985;-70
2021/05/23 11:52:48;;;;;;;;;;;15.90;65.80;;;;;;5090344;28;19912;-70
2021/05/23 11:55:14;;;;;;;;;;;15.20;67.70;;;;;;5090015;28;19924;-70
2021/05/23 11:57:40;;;;;;;;;;;14.30;70.00;;;;;;5093119;28;19919;-71
2021/05/23 12:00:15;;;;;;;;;;;14.10;71.70;;;;;;5085919;28;20024;-69
2021/05/23 12:02:40;;;;;;;;;;;14.00;72.50;;;;;;5093896;28;19916;-71
2021/05/23 12:05:06;;;;;;;;;;;14.40;72.30;;;;;;5096208;28;19919;-71
2021/05/23 12:07:36;;;;;;;;;;;15.20;73.30;;;;;;5092052;28;19920;-70
2021/05/23 12:10:01;;;;;;;;;;;16.00;69.80;;;;;;5068639;28;19913;-71
2021/05/23 12:12:27;;;;;;;;;;;16.50;68.80;;;;;;5091683;28;19912;-70
2021/05/23 12:14:52;;;;;;;;;;;17.20;66.70;;;;;;5093449;28;19912;-71
2021/05/23 12:17:19;;;;;;;;;;;17.40;65.90;;;;;;5092258;28;20263;-68
2021/05/23 12:19:56;;;;;;;;;;;17.30;65.00;;;;;;5083875;28;20223;-69
2021/05/23 12:22:29;;;;;;;;;;;16.90;64.80;;;;;;5093218;28;19912;-70
2021/05/23 12:25:03;;;;;;;;;;;16.90;64.40;;;;;;5084618;28;19962;-71
2021/05/23 12:27:33;;;;;;;;;;;16.70;66.90;;;;;;5096061;28;19995;-70
2021/05/23 12:30:09;;;;;;;;;;;16.60;67.10;;;;;;5071731;28;19950;-70
2021/05/23 12:32:53;;;;;;;;;;;16.70;67.20;;;;;;5083111;28;19919;-71
2021/05/23 12:35:30;;;;;;;;;;;16.80;66.00;;;;;;5088148;28;19920;-70
2021/05/23 12:37:59;;;;;;;;;;;16.30;66.00;;;;;;5085022;28;19916;-71
2021/05/23 12:40:27;;;;;;;;;;;15.40;65.50;;;;;;5075231;28;19967;-71
2021/05/23 12:42:54;;;;;;;;;;;14.60;66.90;;;;;;5087638;28;19916;-71
2021/05/23 12:45:20;;;;;;;;;;;14.30;68.10;;;;;;5095543;28;19912;-71
2021/05/23 12:48:05;;;;;;;;;;;14.20;69.50;;;;;;5087961;28;19920;-69
2021/05/23 12:50:33;;;;;;;;;;;14.30;69.40;;;;;;5083129;28;19916;-70
2021/05/23 12:52:58;;;;;;;;;;;14.20;70.60;;;;;;5090134;28;19918;-71
2021/05/23 12:55:25;;;;;;;;;;;14.70;71.40;;;;;;5083004;28;20015;-71
2021/05/23 12:57:54;;;;;;;;;;;15.20;70.50;;;;;;5082217;28;19973;-71
2021/05/23 13:00:20;;;;;;;;;;;15.60;70.20;;;;;;5089223;28;19912;-71
2021/05/23 13:02:46;;;;;;;;;;;16.10;69.80;;;;;;5093449;28;19943;-70
2021/05/23 13:05:17;;;;;;;;;;;16.30;67.60;;;;;;5083659;28;19916;-71
2021/05/23 13:07:42;;;;;;;;;;;16.10;67.60;;;;;;5093955;28;19920;-70
2021/05/23 13:10:15;;;;;;;;;;;16.00;67.80;;;;;;5090301;28;19912;-70
2021/05/23 13:12:41;;;;;;;;;;;15.90;67.40;;;;;;5089228;28;19916;-70
2021/05/23 13:15:08;;;;;;;;;;;17.00;65.00;;;;;;5075100;28;19942;-72
2021/05/23 13:17:37;;;;;;;;;;;17.50;62.90;;;;;;5093460;28;19912;-70
2021/05/23 13:20:03;;;;;;;;;;;17.80;62.40;;;;;;5091505;28;19964;-69
2021/05/23 13:22:30;;;;;;;;;;;18.30;61.50;;;;;;5092143;28;19912;-69
2021/05/23 13:24:55;;;;;;;;;;;18.00;61.40;;;;;;5091227;28;19920;-71
2021/05/23 13:27:21;;;;;;;;;;;17.20;60.50;;;;;;5082265;28;19916;-71
2021/05/23 13:29:47;;;;;;;;;;;16.80;62.60;;;;;;5090715;28;19939;-71
2021/05/23 13:32:15;;;;;;;;;;;16.00;61.90;;;;;;5095109;28;19981;-71
2021/05/23 13:34:41;;;;;;;;;;;16.00;64.50;;;;;;5095940;28;19957;-71
2021/05/23 13:37:07;;;;;;;;;;;16.60;62.80;;;;;;5087665;28;20461;-70
2021/05/23 13:39:33;;;;;;;;;;;16.70;61.70;;;;;;5087087;28;19962;-70
2021/05/23 13:41:58;;;;;;;;;;;16.60;62.10;;;;;;5088625;28;19959;-71
2021/05/23 13:44:24;;;;;;;;;;;16.60;61.60;;;;;;5097345;28;20339;-71
2021/05/23 13:46:50;;;;;;;;;;;16.40;61.60;;;;;;5099868;28;20212;-70
2021/05/23 13:49:19;;;;;;;;;;;16.40;61.00;;;;;;5085560;28;19920;-70
2021/05/23 13:51:45;;;;;;;;;;;16.80;61.90;;;;;;5097620;28;19912;-70
2021/05/23 13:54:12;;;;;;;;;;;17.20;59.60;;;;;;5090038;28;19919;-70
2021/05/23 13:56:38;;;;;;;;;;;17.30;56.50;;;;;;5100309;28;20303;-71
2021/05/23 13:59:06;;;;;;;;;;;17.70;58.60;;;;;;5083347;28;19912;-70
2021/05/23 14:01:32;;;;;;;;;;;17.50;55.60;;;;;;5088364;28;19916;-71
2021/05/23 14:03:57;;;;;;;;;;;16.50;57.00;;;;;;5095673;28;20319;-71
2021/05/23 14:06:23;;;;;;;;;;;16.70;58.50;;;;;;5095654;28;19916;-71
2021/05/23 14:08:48;;;;;;;;;;;17.70;57.10;;;;;;5078916;28;20323;-70
2021/05/23 14:11:14;;;;;;;;;;;18.00;56.40;;;;;;5096551;28;20217;-70
2021/05/23 14:13:40;;;;;;;;;;;18.10;56.40;;;;;;5095648;28;20594;-71
2021/05/23 14:16:06;;;;;;;;;;;18.20;56.80;;;;;;5096711;28;20300;-71
2021/05/23 14:18:33;;;;;;;;;;;17.20;57.70;;;;;;5097557;28;19912;-71
2021/05/23 14:20:59;;;;;;;;;;;17.30;57.00;;;;;;5096741;28;19918;-71
2021/05/23 14:23:26;;;;;;;;;;;18.00;57.40;;;;;;5105609;28;20006;-71